Time;durP1;ratioP1;P1;durP2;ratioP2;P2;SDS_P1;SDS_P2;PMS_P1;PMS_P2;Temp;Humidity;BMP_temperature;BMP_pressure;BME280_temperature;BME280_humidity;BME280_pressure;Samples;Min_cycle;Max_cycle;Signal;HPM_P1;HPM_P2
2023/09/08 00:00:44;;;;;;;8.75;6.25;;;14.00;99.90;;;;;;5012793;28;20045;-58
2023/09/08 00:03:10;;;;;;;7.53;6.85;;;14.10;99.90;;;;;;5011485;28;20037;-59
2023/09/08 00:05:35;;;;;;;7.53;6.90;;;14.10;99.90;;;;;;5022964;28;20053;-59
2023/09/08 00:08:01;;;;;;;6.50;5.90;;;14.10;99.90;;;;;;5008596;28;20113;-59
2023/09/08 00:10:27;;;;;;;6.18;5.68;;;14.00;99.90;;;;;;5013018;28;20034;-59
2023/09/08 00:12:52;;;;;;;7.95;5.20;;;14.00;99.90;;;;;;5008717;28;20022;-59
2023/09/08 00:15:18;;;;;;;6.75;5.63;;;13.90;99.90;;;;;;5012563;28;20397;-58
2023/09/08 00:17:43;;;;;;;7.47;5.53;;;13.80;99.90;;;;;;5009550;28;20052;-58
2023/09/08 00:20:09;;;;;;;6.22;5.72;;;13.70;99.90;;;;;;5008365;28;20810;-58
2023/09/08 00:22:37;;;;;;;7.90;7.20;;;13.70;99.90;;;;;;5003892;28;20037;-59
2023/09/08 00:25:03;;;;;;;6.22;5.72;;;13.60;99.90;;;;;;5011608;28;20140;-59
2023/09/08 00:27:30;;;;;;;7.60;7.00;;;13.50;99.90;;;;;;5007941;28;20026;-59
2023/09/08 00:29:55;;;;;;;10.82;7.18;;;13.50;99.90;;;;;;5009257;28;20022;-59
2023/09/08 00:32:21;;;;;;;8.20;6.55;;;13.50;99.90;;;;;;5008705;28;20026;-59
2023/09/08 00:34:47;;;;;;;6.60;6.00;;;13.50;99.90;;;;;;5010159;28;20500;-59
2023/09/08 00:37:12;;;;;;;8.23;6.10;;;13.40;99.90;;;;;;5008466;28;20034;-58
2023/09/08 00:39:38;;;;;;;10.07;6.78;;;13.40;99.90;;;;;;4989274;28;20030;-59
2023/09/08 00:42:04;;;;;;;7.75;7.15;;;13.30;99.90;;;;;;5007077;28;20050;-59
2023/09/08 00:44:30;;;;;;;6.85;6.35;;;13.30;99.90;;;;;;5001811;28;20038;-59
2023/09/08 00:46:56;;;;;;;7.00;6.40;;;13.30;99.90;;;;;;5009318;28;20113;-58
2023/09/08 00:49:22;;;;;;;6.13;5.63;;;13.20;99.90;;;;;;5008147;28;20038;-59
2023/09/08 00:51:48;;;;;;;6.90;6.25;;;13.20;99.90;;;;;;5013436;28;20699;-59
2023/09/08 00:54:14;;;;;;;8.02;7.43;;;13.20;99.90;;;;;;5014685;28;20029;-59
2023/09/08 00:56:40;;;;;;;1999.90;999.90;;;13.30;99.90;;;;;;5011657;28;20049;-60
2023/09/08 00:59:07;;;;;;;2.83;2.63;;;13.30;99.90;;;;;;5011056;28;20038;-60
2023/09/08 01:01:34;;;;;;;22.20;4.63;;;13.20;99.90;;;;;;5014257;28;20060;-58
2023/09/08 01:04:01;;;;;;;6.22;5.30;;;13.20;99.90;;;;;;5014391;28;20033;-59
2023/09/08 01:06:27;;;;;;;5.53;5.03;;;13.20;99.90;;;;;;5013947;28;20018;-59
2023/09/08 01:08:54;;;;;;;5.85;4.50;;;13.10;99.90;;;;;;5014503;28;20477;-59
2023/09/08 01:11:21;;;;;;;5.70;5.20;;;13.00;99.90;;;;;;5012446;28;20037;-59
2023/09/08 01:13:47;;;;;;;1999.90;999.90;;;12.90;99.90;;;;;;5014386;28;20048;-59
2023/09/08 01:16:12;;;;;;;349.38;78.40;;;12.80;99.90;;;;;;5012403;28;20489;-59
2023/09/08 01:18:38;;;;;;;2.60;2.42;;;12.80;99.90;;;;;;5013076;28;20022;-59
2023/09/08 01:21:12;;;;;;;2.53;2.20;;;12.70;99.90;;;;;;5015669;28;20033;-59
2023/09/08 01:24:19;;;;;;;1.50;1.40;;;12.70;99.90;;;;;;5013109;28;20142;-59
2023/09/08 01:26:46;;;;;;;3.45;2.25;;;12.70;99.90;;;;;;5014431;28;20107;-58
2023/09/08 01:29:14;;;;;;;2.53;2.33;;;12.60;99.90;;;;;;5009977;28;20061;-59
2023/09/08 01:31:40;;;;;;;2.78;2.25;;;12.60;99.90;;;;;;5014280;28;20113;-59
2023/09/08 01:34:06;;;;;;;3.78;3.58;;;12.60;99.90;;;;;;5013969;28;20034;-59
2023/09/08 01:36:34;;;;;;;1999.90;999.90;;;12.50;99.90;;;;;;5014666;28;20049;-60
2023/09/08 01:39:01;;;;;;;608.88;108.10;;;12.50;99.90;;;;;;5025645;28;20018;-58
2023/09/08 01:41:26;;;;;;;270.08;61.75;;;12.50;99.90;;;;;;5015563;28;20034;-58
2023/09/08 01:43:52;;;;;;;3.53;1.65;;;12.50;99.90;;;;;;5012719;28;20030;-59
2023/09/08 01:46:18;;;;;;;1.95;1.70;;;12.50;99.90;;;;;;5011428;28;20072;-59
2023/09/08 01:48:43;;;;;;;39.85;4.53;;;12.50;99.90;;;;;;5011875;28;20038;-59
2023/09/08 01:51:09;;;;;;;2.25;2.05;;;12.60;99.90;;;;;;5010905;28;20496;-60
2023/09/08 01:53:35;;;;;;;35.78;26.55;;;12.60;99.90;;;;;;5011711;28;20030;-58
2023/09/08 01:56:01;;;;;;;66.60;61.90;;;12.60;99.90;;;;;;5013281;28;20038;-59
2023/09/08 01:58:26;;;;;;;102.45;33.95;;;12.60;99.90;;;;;;5016056;28;20030;-59
2023/09/08 02:00:52;;;;;;;7.00;6.47;;;12.60;99.90;;;;;;5010665;28;20034;-58
2023/09/08 02:03:17;;;;;;;6.80;6.30;;;12.60;99.90;;;;;;5010743;28;20038;-59
2023/09/08 02:05:44;;;;;;;7.95;5.45;;;12.60;99.90;;;;;;5011677;28;20033;-59
2023/09/08 02:08:10;;;;;;;5.38;4.93;;;12.60;99.90;;;;;;5012726;28;20038;-58
2023/09/08 02:10:35;;;;;;;6.22;4.95;;;12.50;99.90;;;;;;5012341;28;20030;-60
2023/09/08 02:13:01;;;;;;;5.07;4.63;;;12.40;99.90;;;;;;5014524;28;20038;-60
2023/09/08 02:15:26;;;;;;;5.15;4.75;;;12.30;99.90;;;;;;5010836;28;20026;-58
2023/09/08 02:17:56;;;;;;;3.90;3.60;;;12.20;99.90;;;;;;5013213;28;20042;-58
2023/09/08 02:20:22;;;;;;;4.30;4.00;;;12.10;99.90;;;;;;5015634;28;20144;-59
2023/09/08 02:22:53;;;;;;;4.70;4.30;;;12.00;99.90;;;;;;5018193;28;20564;-58
2023/09/08 02:25:19;;;;;;;4.00;3.60;;;12.00;99.90;;;;;;5017893;28;20046;-59
2023/09/08 02:27:44;;;;;;;4.40;4.00;;;12.00;99.90;;;;;;5013999;28;20109;-57
2023/09/08 02:30:10;;;;;;;5.18;4.47;;;12.00;99.90;;;;;;5013355;28;20030;-59
2023/09/08 02:32:36;;;;;;;4.93;4.53;;;12.00;99.90;;;;;;5011334;28;20034;-60
2023/09/08 02:35:01;;;;;;;5.22;4.72;;;12.00;99.90;;;;;;5011787;28;20100;-58
2023/09/08 02:37:27;;;;;;;4.78;4.47;;;12.00;99.90;;;;;;5011381;28;20052;-58
2023/09/08 02:39:52;;;;;;;4.90;4.50;;;12.00;99.90;;;;;;5013436;28;20053;-59
2023/09/08 02:42:18;;;;;;;5.32;4.93;;;11.90;99.90;;;;;;5009378;28;20121;-58
2023/09/08 02:44:44;;;;;;;5.15;4.75;;;11.90;99.90;;;;;;5014720;28;20145;-59
2023/09/08 02:47:10;;;;;;;3.97;3.67;;;11.80;99.90;;;;;;5011373;28;20029;-60
2023/09/08 02:49:35;;;;;;;4.60;4.20;;;11.80;99.90;;;;;;5012202;28;20088;-58
2023/09/08 02:52:01;;;;;;;2.70;2.50;;;11.70;99.90;;;;;;5011180;28;20556;-59
2023/09/08 02:54:27;;;;;;;3.17;2.95;;;11.70;99.90;;;;;;5016077;28;20048;-60
2023/09/08 02:56:52;;;;;;;3.72;3.42;;;11.70;99.90;;;;;;5013165;28;20489;-59
2023/09/08 02:59:18;;;;;;;4.30;4.00;;;11.60;99.90;;;;;;5010823;28;20041;-58
2023/09/08 03:01:44;;;;;;;4.15;3.65;;;11.50;99.90;;;;;;5008931;28;20506;-59
2023/09/08 03:04:09;;;;;;;4.22;3.85;;;11.60;99.90;;;;;;5011916;28;20168;-58
2023/09/08 03:06:35;;;;;;;5.95;5.35;;;11.60;99.90;;;;;;5014454;28;20033;-59
2023/09/08 03:09:00;;;;;;;5.43;4.47;;;11.60;99.90;;;;;;5009974;28;20033;-58
2023/09/08 03:11:26;;;;;;;4.55;4.15;;;11.60;99.90;;;;;;5013791;28;20030;-58
2023/09/08 03:13:52;;;;;;;5.60;5.00;;;11.50;99.90;;;;;;5010747;28;20113;-59
2023/09/08 03:16:17;;;;;;;5.32;4.90;;;11.50;99.90;;;;;;5012276;28;20068;-59
2023/09/08 03:18:43;;;;;;;5.70;4.07;;;11.50;99.90;;;;;;5015126;28;20045;-59
2023/09/08 03:21:09;;;;;;;4.45;4.15;;;11.50;99.90;;;;;;5012250;28;20018;-60
2023/09/08 03:23:39;;;;;;;4.78;4.38;;;11.40;99.90;;;;;;5010032;28;20481;-59
2023/09/08 03:26:05;;;;;;;5.13;4.63;;;11.40;99.90;;;;;;5009364;28;20550;-59
2023/09/08 03:28:31;;;;;;;5.05;4.65;;;11.40;99.90;;;;;;5009367;28;20038;-59
2023/09/08 03:30:57;;;;;;;6.13;4.55;;;11.40;99.90;;;;;;5009314;28;20032;-59
2023/09/08 03:33:23;;;;;;;5.43;4.93;;;11.40;99.90;;;;;;5012742;28;20396;-59
2023/09/08 03:35:49;;;;;;;5.70;5.30;;;11.40;99.90;;;;;;5010064;28;20276;-59
2023/09/08 03:38:14;;;;;;;4.80;4.40;;;11.30;99.90;;;;;;5011568;28;20064;-59
2023/09/08 03:40:40;;;;;;;4.25;3.95;;;11.30;99.90;;;;;;5010546;28;20061;-59
2023/09/08 03:43:06;;;;;;;6.28;5.70;;;11.30;99.90;;;;;;5012871;28;20022;-59
2023/09/08 03:45:31;;;;;;;6.65;6.07;;;11.30;99.90;;;;;;5008682;28;20030;-59
2023/09/08 03:47:57;;;;;;;6.05;5.55;;;11.30;99.90;;;;;;5009003;28;20485;-58
2023/09/08 03:50:23;;;;;;;5.32;4.88;;;11.30;99.90;;;;;;5014111;28;20038;-58
2023/09/08 03:52:48;;;;;;;5.35;4.95;;;11.30;99.90;;;;;;5010290;28;20085;-60
2023/09/08 03:55:14;;;;;;;5.43;4.93;;;11.20;99.90;;;;;;5008816;28;20026;-58
2023/09/08 03:57:40;;;;;;;2.80;2.22;;;11.20;99.90;;;;;;5019439;28;20037;-59
2023/09/08 04:00:06;;;;;;;1282.13;85.35;;;11.20;99.90;;;;;;5011204;28;20938;-59
2023/09/08 04:02:33;;;;;;;4.25;3.95;;;11.20;99.90;;;;;;5010245;28;20049;-59
2023/09/08 04:04:59;;;;;;;2.72;2.53;;;11.10;99.90;;;;;;5010864;28;20037;-58
2023/09/08 04:07:24;;;;;;;5.93;5.53;;;11.00;99.90;;;;;;5009889;28;20138;-59
2023/09/08 04:09:50;;;;;;;6.78;6.28;;;10.90;99.90;;;;;;5010476;28;20120;-62
2023/09/08 04:12:16;;;;;;;1999.90;999.90;;;10.90;99.90;;;;;;5006063;28;20041;-59
2023/09/08 04:14:41;;;;;;;1999.90;999.90;;;10.80;99.90;;;;;;5006212;28;20062;-55
2023/09/08 04:17:08;;;;;;;1999.90;999.90;;;10.80;99.90;;;;;;5005722;28;20034;-58
2023/09/08 04:19:33;;;;;;;1999.90;999.90;;;10.80;99.90;;;;;;5007091;28;20038;-59
2023/09/08 04:21:59;;;;;;;1999.90;999.90;;;10.90;99.90;;;;;;5009143;28;20120;-57
2023/09/08 04:24:25;;;;;;;1999.90;999.90;;;10.90;99.90;;;;;;5012007;28;20109;-58
2023/09/08 04:26:50;;;;;;;1999.90;999.90;;;10.90;99.90;;;;;;5009389;28;20422;-57
2023/09/08 04:29:16;;;;;;;1999.90;999.90;;;10.90;99.90;;;;;;5009486;28;20046;-59
2023/09/08 04:31:41;;;;;;;1999.90;999.90;;;10.90;99.90;;;;;;5008379;28;20084;-58
2023/09/08 04:34:07;;;;;;;1999.90;999.90;;;10.90;99.90;;;;;;5009053;28;20022;-58
2023/09/08 04:36:32;;;;;;;1999.90;999.90;;;10.90;99.90;;;;;;5006625;28;20022;-59
2023/09/08 04:38:58;;;;;;;1999.90;999.90;;;10.90;99.90;;;;;;5012162;28;20017;-60
2023/09/08 04:41:24;;;;;;;1999.90;999.90;;;10.90;99.90;;;;;;5012251;28;20045;-59
2023/09/08 04:43:49;;;;;;;1999.90;999.90;;;10.80;99.90;;;;;;5012772;28;20026;-59
2023/09/08 04:46:15;;;;;;;1999.90;999.90;;;10.80;99.90;;;;;;5009016;28;20026;-59
2023/09/08 04:48:42;;;;;;;1999.90;999.90;;;10.70;99.90;;;;;;5006543;28;20049;-59
2023/09/08 04:51:07;;;;;;;392.73;105.35;;;10.70;99.90;;;;;;5009549;28;20486;-59
2023/09/08 04:53:33;;;;;;;1531.13;767.38;;;10.60;99.90;;;;;;5014035;28;20030;-59
2023/09/08 04:55:59;;;;;;;1999.90;999.90;;;10.60;99.90;;;;;;5013832;28;20026;-58
2023/09/08 04:58:25;;;;;;;458.92;67.25;;;10.50;99.90;;;;;;5009402;28;20045;-59
2023/09/08 05:00:51;;;;;;;1999.90;999.90;;;10.50;99.90;;;;;;5007715;28;20068;-59
2023/09/08 05:03:16;;;;;;;1999.90;999.90;;;10.50;99.90;;;;;;5008950;28;20049;-60
2023/09/08 05:05:42;;;;;;;1999.90;999.90;;;10.50;99.90;;;;;;5011357;28;20501;-58
2023/09/08 05:08:08;;;;;;;1999.90;999.90;;;10.50;99.90;;;;;;5008625;28;20084;-59
2023/09/08 05:10:33;;;;;;;1999.90;999.90;;;10.40;99.90;;;;;;5007647;28;20046;-58
2023/09/08 05:12:59;;;;;;;1999.90;999.90;;;10.50;99.90;;;;;;5011769;28;20030;-60
2023/09/08 05:15:25;;;;;;;1999.90;999.90;;;10.50;99.90;;;;;;5012692;28;20072;-59
2023/09/08 05:17:51;;;;;;;1999.90;999.90;;;10.50;99.90;;;;;;5007945;28;20461;-58
2023/09/08 05:20:17;;;;;;;1999.90;999.90;;;10.60;99.90;;;;;;5013144;28;20050;-58
2023/09/08 05:22:42;;;;;;;1999.90;999.90;;;10.60;99.90;;;;;;5012861;28;20432;-59
2023/09/08 05:25:08;;;;;;;1999.90;999.90;;;10.60;99.90;;;;;;5006576;28;20523;-59
2023/09/08 05:27:34;;;;;;;1999.90;999.90;;;10.70;99.90;;;;;;5011138;28;20116;-59
2023/09/08 05:29:59;;;;;;;1999.90;999.90;;;10.70;99.90;;;;;;5009701;28;20117;-59
2023/09/08 05:32:25;;;;;;;1999.90;999.90;;;10.70;99.90;;;;;;5007285;28;20038;-59
2023/09/08 05:34:51;;;;;;;1999.90;999.90;;;10.70;99.90;;;;;;5011035;28;20485;-58
2023/09/08 05:37:16;;;;;;;1999.90;999.90;;;10.80;99.90;;;;;;5013314;28;20454;-59
2023/09/08 05:39:42;;;;;;;1999.90;999.90;;;10.80;99.90;;;;;;5010890;28;20042;-58
2023/09/08 05:42:07;;;;;;;1999.90;999.90;;;10.90;99.90;;;;;;5012267;28;20022;-59
2023/09/08 05:44:33;;;;;;;1999.90;999.90;;;11.00;99.90;;;;;;5012002;28;20358;-59
2023/09/08 05:46:59;;;;;;;1999.90;999.90;;;11.10;99.90;;;;;;5016208;28;20662;-59
2023/09/08 05:49:24;;;;;;;1999.90;999.90;;;11.10;99.90;;;;;;5013041;28;20046;-58
2023/09/08 05:51:50;;;;;;;1999.90;999.90;;;11.20;99.90;;;;;;5012058;28;20062;-59
2023/09/08 05:54:16;;;;;;;1999.90;999.90;;;11.30;99.90;;;;;;5014094;28;20022;-59
2023/09/08 05:56:41;;;;;;;1999.90;999.90;;;11.40;99.90;;;;;;5010745;28;20037;-60
2023/09/08 05:59:07;;;;;;;1999.90;999.90;;;11.50;99.90;;;;;;5010371;28;20033;-58
2023/09/08 06:01:32;;;;;;;1999.90;999.90;;;11.50;99.90;;;;;;5000681;28;20088;-59
2023/09/08 06:03:58;;;;;;;1999.90;999.90;;;11.60;99.90;;;;;;5009950;28;20026;-58
2023/09/08 06:06:25;;;;;;;9.90;9.60;;;11.70;99.90;;;;;;5008122;28;20029;-59
2023/09/08 06:08:51;;;;;;;1999.90;999.90;;;11.80;99.90;;;;;;5011231;28;20420;-59
2023/09/08 06:11:16;;;;;;;1999.90;999.90;;;11.90;99.90;;;;;;5006899;28;20164;-60
2023/09/08 06:13:42;;;;;;;1999.90;999.90;;;12.00;99.90;;;;;;5012697;28;20128;-59
2023/09/08 06:16:08;;;;;;;1999.90;999.90;;;12.20;99.90;;;;;;5013702;28;20029;-59
2023/09/08 06:18:39;;;;;;;1999.90;999.90;;;12.20;99.90;;;;;;5013343;28;20036;-59
2023/09/08 06:21:06;;;;;;;1999.90;999.90;;;12.40;99.90;;;;;;5010199;28;20113;-58
2023/09/08 06:23:35;;;;;;;1999.90;999.90;;;12.50;99.90;;;;;;5010423;28;20030;-59
2023/09/08 06:26:01;;;;;;;1999.90;999.90;;;12.60;99.90;;;;;;4979975;28;20393;-59
2023/09/08 06:28:27;;;;;;;1999.90;999.90;;;12.70;99.90;;;;;;5016117;28;20038;-59
2023/09/08 06:30:53;;;;;;;1999.90;999.90;;;12.90;99.90;;;;;;5008993;28;20045;-60
2023/09/08 06:33:20;;;;;;;17.58;16.85;;;13.00;99.90;;;;;;5014715;28;20026;-59
2023/09/08 06:35:47;;;;;;;24.98;24.27;;;13.10;99.90;;;;;;5012065;28;20120;-59
2023/09/08 06:38:13;;;;;;;34.97;32.90;;;13.20;99.90;;;;;;5013790;28;20832;-60
2023/09/08 06:40:38;;;;;;;0.20;0.20;;;13.30;99.90;;;;;;5012446;28;20053;-60
2023/09/08 06:43:04;;;;;;;0.30;0.30;;;13.40;99.90;;;;;;5009473;28;20034;-59
2023/09/08 06:45:30;;;;;;;0.40;0.40;;;13.50;99.90;;;;;;5011228;28;20103;-59
2023/09/08 06:47:55;;;;;;;0.30;0.30;;;13.70;99.90;;;;;;5012718;28;20037;-60
2023/09/08 06:50:22;;;;;;;0.30;0.30;;;13.80;99.90;;;;;;5011172;28;20556;-59
2023/09/08 06:52:51;;;;;;;0.88;0.88;;;13.90;99.90;;;;;;5016336;28;20038;-59
2023/09/08 06:55:17;;;;;;;3.63;3.53;;;14.00;99.90;;;;;;4994597;28;20037;-59
2023/09/08 06:57:44;;;;;;;1999.90;999.90;;;14.10;99.90;;;;;;5009837;28;20125;-59
2023/09/08 07:00:11;;;;;;;1999.90;999.90;;;14.20;99.90;;;;;;5013334;28;20072;-59
2023/09/08 07:02:37;;;;;;;1999.90;999.90;;;14.30;99.90;;;;;;5014376;28;20029;-59
2023/09/08 07:05:07;;;;;;;1999.90;999.90;;;14.40;99.90;;;;;;5013164;28;20068;-60
2023/09/08 07:07:34;;;;;;;1999.90;999.90;;;14.50;99.90;;;;;;5010752;28;20113;-59
2023/09/08 07:10:00;;;;;;;1999.90;999.90;;;14.70;99.90;;;;;;5011947;28;20049;-60
2023/09/08 07:12:25;;;;;;;1999.90;999.90;;;14.80;99.90;;;;;;5012174;28;20125;-59
2023/09/08 07:14:51;;;;;;;1999.90;999.90;;;14.90;99.90;;;;;;5014564;28;20484;-58
2023/09/08 07:17:17;;;;;;;1509.95;759.55;;;15.00;99.90;;;;;;5010661;28;20040;-59
2023/09/08 07:19:42;;;;;;;1999.90;999.90;;;15.10;99.90;;;;;;5013266;28;20038;-59
2023/09/08 07:22:08;;;;;;;1999.90;999.90;;;15.20;99.90;;;;;;5010395;28;20688;-60
2023/09/08 07:24:33;;;;;;;1999.90;999.90;;;15.40;99.90;;;;;;5010397;28;20033;-59
2023/09/08 07:27:00;;;;;;;1999.90;999.90;;;15.50;99.90;;;;;;5011922;28;20477;-58
2023/09/08 07:29:26;;;;;;;569.35;290.73;;;15.60;99.90;;;;;;5002089;28;20110;-59
2023/09/08 07:31:51;;;;;;;1999.90;999.90;;;15.70;99.90;;;;;;5005157;28;20037;-60
2023/09/08 07:34:18;;;;;;;1999.90;999.90;;;15.80;99.90;;;;;;4989451;28;20944;-59
2023/09/08 07:36:44;;;;;;;90.68;79.97;;;16.00;99.90;;;;;;4965963;28;20030;-59
2023/09/08 07:39:09;;;;;;;17.50;16.50;;;16.10;99.90;;;;;;5007647;28;20785;-61
2023/09/08 07:41:36;;;;;;;1509.80;757.88;;;16.20;99.90;;;;;;5008149;28;20401;-57
2023/09/08 07:44:02;;;;;;;36.30;33.00;;;16.30;99.90;;;;;;5006237;28;20453;-59
2023/09/08 07:46:28;;;;;;;40.15;37.15;;;16.50;99.90;;;;;;5010586;28;20490;-59
2023/09/08 07:48:53;;;;;;;1050.45;544.92;;;16.60;99.90;;;;;;5011721;28;20080;-59
2023/09/08 07:51:19;;;;;;;33.42;17.08;;;16.70;99.90;;;;;;5009305;28;20076;-60
2023/09/08 07:53:45;;;;;;;4.47;3.60;;;16.80;99.90;;;;;;5012555;28;20044;-59
2023/09/08 07:56:10;;;;;;;1999.90;999.90;;;17.00;99.90;;;;;;5010641;28;20040;-60
2023/09/08 07:58:36;;;;;;;3.63;2.50;;;17.10;99.90;;;;;;5009719;28;20045;-60
2023/09/08 08:01:02;;;;;;;1999.90;999.90;;;17.20;99.90;;;;;;5008168;28;20573;-59
2023/09/08 08:03:27;;;;;;;1999.90;999.90;;;17.40;99.90;;;;;;5011121;28;20112;-60
2023/09/08 08:05:54;;;;;;;382.65;66.95;;;17.60;99.90;;;;;;5011738;28;20485;-60
2023/09/08 08:08:19;;;;;;;1.80;1.15;;;17.80;99.90;;;;;;5012736;28;20042;-60
2023/09/08 08:10:45;;;;;;;1999.90;999.90;;;17.90;99.90;;;;;;5014346;28;20022;-60
2023/09/08 08:13:10;;;;;;;1999.90;999.90;;;18.00;99.90;;;;;;5011369;28;20036;-59
2023/09/08 08:15:38;;;;;;;1999.90;999.90;;;18.10;99.90;;;;;;5009904;28;20030;-60
2023/09/08 08:18:05;;;;;;;1999.90;999.90;;;18.30;99.90;;;;;;5011164;28;20129;-59
2023/09/08 08:20:34;;;;;;;1999.90;999.90;;;18.40;99.90;;;;;;5010504;28;20460;-59
2023/09/08 08:23:00;;;;;;;1999.90;999.90;;;18.60;99.90;;;;;;5013893;28;20437;-60
2023/09/08 08:25:26;;;;;;;1999.90;999.90;;;18.70;99.90;;;;;;5014225;28;20112;-59
2023/09/08 08:27:52;;;;;;;1999.90;999.90;;;18.90;99.90;;;;;;5008447;28;20117;-60
2023/09/08 08:30:17;;;;;;;1999.90;999.90;;;19.00;99.90;;;;;;5009181;28;20124;-59
2023/09/08 08:32:43;;;;;;;1999.90;999.90;;;19.10;99.90;;;;;;5009628;28;20144;-60
2023/09/08 08:35:09;;;;;;;1999.90;999.90;;;19.20;99.90;;;;;;5008911;28;20586;-59
2023/09/08 08:37:35;;;;;;;91.78;86.75;;;19.40;99.90;;;;;;5012762;28;20022;-60
2023/09/08 08:40:01;;;;;;;1999.90;999.90;;;19.50;99.90;;;;;;5010196;28;20385;-60
2023/09/08 08:42:33;;;;;;;1999.90;999.90;;;19.60;99.90;;;;;;5014157;28;20041;-60
2023/09/08 08:44:59;;;;;;;1999.90;999.90;;;19.70;99.90;;;;;;5011668;28;20057;-60
2023/09/08 08:47:28;;;;;;;1999.90;999.90;;;19.80;99.90;;;;;;5010995;28;20038;-61
2023/09/08 08:49:58;;;;;;;1999.90;999.90;;;19.90;99.90;;;;;;5012670;28;20037;-60
2023/09/08 08:52:24;;;;;;;1999.90;999.90;;;20.10;99.90;;;;;;5009030;28;20030;-60
2023/09/08 08:54:50;;;;;;;1999.90;999.90;;;20.20;99.90;;;;;;5009047;28;20037;-60
2023/09/08 08:57:16;;;;;;;1999.90;999.90;;;20.30;99.90;;;;;;5011780;28;20041;-60
2023/09/08 08:59:41;;;;;;;1999.90;999.90;;;20.40;99.90;;;;;;5010882;28;20389;-60
2023/09/08 09:02:11;;;;;;;1999.90;999.90;;;20.50;99.90;;;;;;5014411;28;20083;-60
2023/09/08 09:04:38;;;;;;;1999.90;999.90;;;20.50;99.90;;;;;;5008359;28;20030;-61
2023/09/08 09:07:06;;;;;;;1999.90;999.90;;;20.80;99.90;;;;;;5007839;28;20405;-60
2023/09/08 09:09:32;;;;;;;1999.90;999.90;;;21.10;99.90;;;;;;5009700;28;20382;-59
2023/09/08 09:11:58;;;;;;;1999.90;999.90;;;21.60;99.90;;;;;;5009733;28;20026;-60
2023/09/08 09:14:24;;;;;;;1999.90;999.90;;;22.40;99.90;;;;;;5015115;28;20030;-60
2023/09/08 09:16:50;;;;;;;1999.90;999.90;;;23.00;99.90;;;;;;5011653;28;20021;-60
2023/09/08 09:19:31;;;;;;;223.15;128.82;;;23.40;99.90;;;;;;5013342;28;20071;-60
2023/09/08 09:21:58;;;;;;;1398.93;285.52;;;23.80;99.90;;;;;;5013932;28;20061;-60
2023/09/08 09:24:40;;;;;;;746.83;139.82;;;24.10;99.90;;;;;;5013241;28;20071;-60
2023/09/08 09:27:07;;;;;;;1119.75;566.92;;;24.20;99.90;;;;;;5011792;28;20128;-60
2023/09/08 09:29:33;;;;;;;1999.90;999.90;;;24.40;99.90;;;;;;5014313;28;20026;-59
2023/09/08 09:32:06;;;;;;;1999.90;999.90;;;24.50;99.90;;;;;;5012615;28;20030;-59
2023/09/08 09:34:32;;;;;;;1999.90;999.90;;;24.40;99.90;;;;;;5015292;28;20078;-60
2023/09/08 09:36:57;;;;;;;1999.90;999.90;;;24.40;99.90;;;;;;5011625;28;20037;-60
2023/09/08 09:39:25;;;;;;;1999.90;999.90;;;24.50;99.90;;;;;;5010463;28;20125;-59
2023/09/08 09:41:55;;;;;;;1999.90;999.90;;;24.50;99.90;;;;;;5015441;28;20034;-60
2023/09/08 09:44:22;;;;;;;1999.90;999.90;;;24.50;99.90;;;;;;5010891;28;20064;-60
2023/09/08 09:46:48;;;;;;;1999.90;999.90;;;24.60;99.90;;;;;;5017536;28;20104;-60
2023/09/08 09:49:17;;;;;;;1999.90;999.90;;;24.60;99.90;;;;;;5013618;28;20431;-60
2023/09/08 09:51:53;;;;;;;1999.90;999.90;;;24.70;99.90;;;;;;5012783;28;20033;-61
2023/09/08 09:54:19;;;;;;;1999.90;999.90;;;24.80;99.90;;;;;;5011261;28;20613;-60
2023/09/08 09:56:50;;;;;;;1999.90;999.90;;;24.80;99.90;;;;;;5014348;28;20042;-60
2023/09/08 09:59:15;;;;;;;611.47;119.13;;;24.70;99.90;;;;;;5012933;28;20034;-60
2023/09/08 10:01:42;;;;;;;1.88;1.77;;;24.70;99.90;;;;;;5012865;28;20661;-58
2023/09/08 10:04:08;;;;;;;2.10;1.90;;;24.80;99.90;;;;;;5012380;28;20035;-60
2023/09/08 10:06:35;;;;;;;8.48;2.47;;;24.80;99.90;;;;;;5012138;28;20132;-60
2023/09/08 10:09:08;;;;;;;740.83;63.13;;;24.90;99.90;;;;;;5010517;28;20022;-60
2023/09/08 10:12:04;;;;;;;791.22;63.30;;;24.90;99.90;;;;;;5008963;28;20077;-60
2023/09/08 10:14:33;;;;;;;3.08;1.85;;;25.00;99.90;;;;;;4993603;28;20037;-61
2023/09/08 10:17:02;;;;;;;1999.90;999.90;;;25.00;99.90;;;;;;5011315;28;20041;-60
2023/09/08 10:19:28;;;;;;;399.70;159.88;;;25.00;99.90;;;;;;5010967;28;20034;-59
2023/09/08 10:22:00;;;;;;;2.17;1.92;;;25.10;97.80;;;;;;5009931;28;20052;-60
2023/09/08 10:24:33;;;;;;;2.42;2.20;;;25.10;99.20;;;;;;5009777;28;20044;-59
2023/09/08 10:27:05;;;;;;;2.55;2.35;;;25.20;99.90;;;;;;5018318;28;20053;-59
2023/09/08 10:29:33;;;;;;;90.38;40.55;;;25.30;98.90;;;;;;5013276;28;20026;-59
2023/09/08 10:32:00;;;;;;;3.83;2.00;;;25.30;97.70;;;;;;5007018;28;20030;-59
2023/09/08 10:34:27;;;;;;;43.80;34.92;;;25.40;98.70;;;;;;5012176;28;20116;-60
2023/09/08 10:36:53;;;;;;;682.65;324.83;;;25.40;96.50;;;;;;5007143;28;20378;-60
2023/09/08 10:39:30;;;;;;;2.03;1.80;;;25.50;93.20;;;;;;5012808;28;20048;-61
2023/09/08 10:42:18;;;;;;;2.25;2.05;;;25.50;94.60;;;;;;5013539;28;20046;-59
2023/09/08 10:44:55;;;;;;;103.45;32.22;;;25.50;99.90;;;;;;5010977;28;20049;-59
2023/09/08 10:47:25;;;;;;;1725.00;164.77;;;25.50;96.10;;;;;;5015056;28;20050;-60
2023/09/08 10:49:57;;;;;;;272.83;81.82;;;25.60;93.80;;;;;;5012324;28;20485;-60
2023/09/08 10:52:24;;;;;;;0.80;0.80;;;25.60;95.10;;;;;;5012697;28;20461;-60
2023/09/08 10:54:54;;;;;;;2.08;1.50;;;25.60;94.90;;;;;;5009788;28;20033;-61
2023/09/08 10:57:22;;;;;;;1.77;1.02;;;25.60;96.40;;;;;;5010374;28;20038;-60
2023/09/08 11:00:00;;;;;;;1.58;1.08;;;25.70;98.60;;;;;;5008850;28;20034;-59
2023/09/08 11:02:35;;;;;;;1.98;1.08;;;25.70;94.90;;;;;;5015766;28;20139;-60
2023/09/08 11:05:13;;;;;;;0.90;0.70;;;25.70;96.90;;;;;;5013705;28;20046;-60
2023/09/08 11:07:40;;;;;;;1.88;1.42;;;25.80;96.10;;;;;;5011144;28;20259;-59
2023/09/08 11:10:07;;;;;;;1.45;1.35;;;25.90;90.90;;;;;;5011084;28;20022;-60
2023/09/08 11:12:33;;;;;;;2.22;2.03;;;26.00;90.60;;;;;;5013862;28;20034;-60
2023/09/08 11:15:03;;;;;;;1.65;1.20;;;26.00;91.30;;;;;;4993559;28;20038;-60
2023/09/08 11:17:30;;;;;;;1.17;1.08;;;26.10;90.90;;;;;;5010246;28;20040;-60
2023/09/08 11:19:56;;;;;;;1.10;0.80;;;26.00;90.50;;;;;;5011092;28;20104;-60
2023/09/08 11:22:26;;;;;;;0.98;0.80;;;26.10;92.50;;;;;;5009402;28;20464;-61
2023/09/08 11:24:53;;;;;;;1.67;1.52;;;26.10;91.90;;;;;;4997167;28;20082;-59
2023/09/08 11:27:20;;;;;;;0.68;0.68;;;26.20;96.20;;;;;;5011299;28;20091;-60
2023/09/08 11:29:46;;;;;;;1.75;0.85;;;26.30;94.80;;;;;;5013643;28;20033;-59
2023/09/08 11:32:12;;;;;;;1.10;1.00;;;26.40;93.40;;;;;;5010086;28;20045;-60
2023/09/08 11:34:38;;;;;;;1.20;0.90;;;26.50;90.90;;;;;;5011659;28;20017;-59
2023/09/08 11:37:13;;;;;;;1.77;0.95;;;26.50;92.60;;;;;;5010879;28;20029;-60
2023/09/08 11:39:39;;;;;;;0.85;0.80;;;26.60;95.50;;;;;;5007800;28;20547;-59
2023/09/08 11:42:06;;;;;;;1.35;1.25;;;26.60;93.60;;;;;;5010273;28;20037;-60
2023/09/08 11:44:34;;;;;;;206.02;11.40;;;26.60;93.50;;;;;;5009670;28;20485;-60
2023/09/08 11:47:01;;;;;;;1.88;0.98;;;26.70;90.70;;;;;;5010123;28;20075;-60
2023/09/08 11:49:26;;;;;;;908.75;60.53;;;26.80;91.20;;;;;;5009230;28;20072;-59
2023/09/08 11:51:52;;;;;;;1999.90;999.90;;;27.00;86.20;;;;;;5013872;28;20050;-60
2023/09/08 11:54:18;;;;;;;1999.90;999.90;;;27.10;86.60;;;;;;5007370;28;20573;-59
2023/09/08 11:56:45;;;;;;;78.63;71.07;;;27.20;84.50;;;;;;5013491;28;20026;-60
2023/09/08 11:59:12;;;;;;;1.35;0.98;;;27.40;82.70;;;;;;4996273;28;20036;-59
2023/09/08 12:01:38;;;;;;;1.23;1.08;;;27.50;77.70;;;;;;5009131;28;20075;-59
2023/09/08 12:04:04;;;;;;;113.32;100.82;;;27.60;74.20;;;;;;5012932;28;20025;-60
2023/09/08 12:06:29;;;;;;;1999.90;999.90;;;27.70;75.30;;;;;;5008949;28;20106;-60
2023/09/08 12:09:02;;;;;;;1999.90;999.90;;;27.80;73.60;;;;;;5010754;28;20060;-61
2023/09/08 12:11:34;;;;;;;2.83;1.95;;;27.90;73.40;;;;;;5006373;28;20038;-60
2023/09/08 12:14:01;;;;;;;1.98;1.23;;;28.00;71.20;;;;;;5015083;28;20497;-60
2023/09/08 12:16:27;;;;;;;1.63;1.23;;;28.00;71.20;;;;;;5012335;28;20022;-60
2023/09/08 12:18:52;;;;;;;446.52;202.15;;;28.10;75.90;;;;;;5007529;28;20025;-60
2023/09/08 12:21:18;;;;;;;87.82;5.13;;;28.20;74.60;;;;;;5009000;28;20034;-60